createdAt,value
2023-05-14T18:28:10.837Z,60.63
2023-05-14T18:30:47.020Z,64.13
2023-05-14T18:33:19.360Z,59.05
2023-05-14T18:36:01.655Z,57.00
2023-05-14T18:38:45.833Z,58.28
2023-05-14T18:41:24.121Z,56.75
2023-05-14T18:44:07.448Z,54.50
2023-05-14T18:46:53.500Z,63.25
2023-05-14T18:49:36.748Z,60.00
2023-05-14T18:52:18.310Z,61.35
2023-05-14T18:55:02.257Z,61.28
2023-05-14T18:57:50.752Z,64.53
2023-05-14T19:00:33.685Z,70.75
2023-05-14T19:03:11.621Z,61.47
2023-05-14T19:05:56.031Z,64.70
2023-05-14T19:08:39.820Z,63.90
2023-05-14T19:11:18.912Z,60.70
2023-05-14T19:13:58.951Z,64.28
2023-05-14T19:16:43.150Z,65.68
2023-05-14T19:19:26.891Z,63.42
2023-05-14T19:22:20.997Z,65.97
2023-05-14T19:24:56.480Z,61.28
2023-05-14T19:27:35.056Z,60.10
2023-05-14T19:30:04.762Z,63.13
2023-05-14T19:32:32.829Z,65.25
2023-05-14T19:34:59.837Z,68.18
2023-05-14T19:37:26.980Z,76.53
2023-05-14T19:40:13.340Z,68.00
2023-05-14T19:42:53.926Z,69.13
2023-05-14T19:45:32.391Z,71.10
2023-05-14T19:48:16.841Z,68.22
2023-05-14T19:50:52.622Z,68.65
2023-05-14T19:53:37.058Z,71.35
2023-05-14T19:56:20.090Z,69.07
2023-05-14T19:59:09.641Z,67.50
2023-05-14T20:01:44.870Z,63.03
2023-05-14T20:04:26.624Z,69.10
2023-05-14T20:07:10.136Z,67.55
2023-05-14T20:09:53.945Z,65.10
2023-05-14T20:12:29.639Z,53.75
2023-05-14T20:14:56.616Z,62.90
2023-05-14T20:17:38.519Z,60.30
2023-05-14T20:20:16.350Z,57.83
2023-05-14T20:22:49.074Z,54.25
2023-05-14T20:25:28.746Z,57.20
2023-05-14T20:28:04.420Z,53.67
2023-05-14T20:30:48.801Z,55.50
2023-05-14T20:33:34.121Z,58.47
2023-05-14T20:36:11.951Z,56.22
2023-05-14T20:38:44.765Z,60.72
2023-05-14T20:41:12.176Z,64.07
2023-05-14T20:43:50.457Z,67.30
2023-05-14T20:46:25.844Z,64.70
2023-05-14T20:48:57.808Z,63.83
2023-05-14T20:51:36.202Z,67.20
2023-05-14T20:54:18.147Z,63.58
2023-05-14T20:56:45.183Z,63.50
2023-05-14T20:59:13.046Z,62.10
2023-05-14T21:01:48.169Z,67.05
2023-05-14T21:04:20.686Z,64.70
2023-05-14T21:06:51.767Z,70.47
2023-05-14T21:09:30.014Z,69.40
2023-05-14T21:12:02.759Z,69.47
2023-05-14T21:14:33.682Z,70.60
2023-05-14T21:17:06.446Z,69.28
2023-05-14T21:19:54.874Z,70.32
2023-05-14T21:22:35.503Z,70.85
2023-05-14T21:25:05.168Z,72.72
2023-05-14T21:27:32.188Z,67.90
2023-05-14T21:30:04.051Z,79.22
2023-05-14T21:32:44.975Z,71.85
2023-05-14T21:35:23.475Z,71.10
2023-05-14T21:37:51.500Z,70.03
2023-05-14T21:40:26.709Z,64.07
2023-05-14T21:43:01.576Z,69.53
2023-05-14T21:45:50.802Z,71.40
2023-05-14T21:48:20.309Z,64.53
2023-05-14T21:50:52.881Z,69.93
2023-05-14T21:53:23.407Z,68.22
2023-05-14T21:55:52.843Z,72.63
2023-05-14T21:58:25.378Z,69.93
2023-05-14T22:01:00.704Z,69.00
2023-05-14T22:03:44.253Z,76.00
2023-05-14T22:06:19.622Z,70.28
2023-05-14T22:09:05.594Z,73.53
2023-05-14T22:11:41.085Z,68.28
2023-05-14T22:14:19.139Z,72.38
2023-05-14T22:16:54.522Z,74.47
2023-05-14T22:19:35.523Z,73.93
2023-05-14T22:22:10.687Z,78.18
2023-05-14T22:24:42.901Z,76.80
2023-05-14T22:27:26.828Z,73.85
2023-05-14T22:29:55.348Z,71.55
2023-05-14T22:32:25.590Z,77.15
2023-05-14T22:35:04.730Z,75.72
2023-05-14T22:37:45.336Z,75.60
2023-05-14T22:40:24.960Z,74.10
2023-05-14T22:42:57.560Z,72.63
2023-05-14T22:45:35.937Z,75.25
2023-05-14T22:48:02.940Z,77.05
2023-05-14T22:50:42.832Z,75.43
2023-05-14T22:53:18.222Z,77.47
2023-05-14T22:55:45.255Z,78.80
2023-05-14T22:58:23.864Z,78.10
2023-05-14T23:01:07.386Z,81.20
2023-05-14T23:03:45.518Z,77.80
2023-05-14T23:06:23.209Z,80.28
2023-05-14T23:08:50.163Z,75.93
2023-05-14T23:11:31.905Z,76.32
2023-05-14T23:13:59.307Z,80.03
2023-05-14T23:16:34.557Z,78.03
2023-05-14T23:19:09.976Z,78.40
2023-05-14T23:21:53.695Z,72.70
2023-05-14T23:24:20.744Z,74.55
2023-05-14T23:26:57.069Z,76.15
2023-05-14T23:29:24.096Z,72.45
2023-05-14T23:31:53.401Z,76.30
2023-05-14T23:34:34.736Z,72.10
2023-05-14T23:37:24.066Z,76.25
2023-05-14T23:39:59.393Z,70.38
2023-05-14T23:42:27.507Z,69.30
2023-05-14T23:45:06.610Z,68.25
2023-05-14T23:47:50.931Z,66.40
2023-05-14T23:50:22.274Z,65.25
2023-05-14T23:52:58.058Z,70.72
2023-05-14T23:55:39.344Z,71.28
2023-05-14T23:58:22.825Z,70.40
